createdAt,value
2023-05-09T00:00:56.395Z,35.57
2023-05-09T00:01:56.752Z,35.55
2023-05-09T00:02:56.456Z,35.57
2023-05-09T00:03:56.485Z,35.61
2023-05-09T00:04:56.465Z,35.57
2023-05-09T00:05:56.451Z,35.60
2023-05-09T00:06:56.496Z,35.59
2023-05-09T00:07:56.476Z,35.60
2023-05-09T00:08:56.506Z,35.56
2023-05-09T00:09:56.514Z,35.62
2023-05-09T00:10:56.584Z,35.57
2023-05-09T00:11:56.568Z,35.58
2023-05-09T00:12:56.594Z,35.61
2023-05-09T00:13:56.559Z,35.62
2023-05-09T00:14:56.570Z,35.59
2023-05-09T00:15:56.617Z,35.58
2023-05-09T00:16:56.579Z,35.60
2023-05-09T00:17:56.675Z,35.59
2023-05-09T00:18:56.509Z,35.53
2023-05-09T00:19:56.533Z,35.55
2023-05-09T00:20:56.539Z,35.55
2023-05-09T00:21:56.549Z,35.55
2023-05-09T00:22:56.524Z,35.58
2023-05-09T00:23:56.495Z,35.54
2023-05-09T00:24:56.526Z,35.59
2023-05-09T00:25:56.510Z,35.57
2023-05-09T00:26:56.506Z,35.56
2023-05-09T00:27:56.481Z,35.53
2023-05-09T00:28:56.508Z,35.55
2023-05-09T00:29:56.509Z,35.54
2023-05-09T00:30:56.549Z,35.55
2023-05-09T00:31:56.548Z,35.58
2023-05-09T00:32:56.577Z,35.57
2023-05-09T00:33:56.606Z,35.57
2023-05-09T00:34:56.503Z,35.57
2023-05-09T00:35:56.509Z,35.53
2023-05-09T00:36:56.497Z,35.53
2023-05-09T00:37:56.565Z,35.57
2023-05-09T00:38:56.514Z,35.51
2023-05-09T00:39:56.570Z,35.53
2023-05-09T00:40:56.614Z,35.56
2023-05-09T00:41:56.616Z,35.53
2023-05-09T00:42:56.691Z,35.49
2023-05-09T00:43:56.717Z,35.49
2023-05-09T00:44:56.739Z,35.49
2023-05-09T00:45:56.831Z,35.53
2023-05-09T00:46:56.789Z,35.53
2023-05-09T00:47:56.904Z,35.52
2023-05-09T00:48:56.793Z,35.51
2023-05-09T00:49:56.920Z,35.45
2023-05-09T00:50:56.883Z,35.51
2023-05-09T00:51:56.913Z,35.53
2023-05-09T00:52:56.917Z,35.49
2023-05-09T00:53:56.918Z,35.52
2023-05-09T00:54:56.902Z,35.52
2023-05-09T00:55:56.919Z,35.56
2023-05-09T00:56:56.934Z,35.52
2023-05-09T00:57:56.946Z,35.55
2023-05-09T00:58:56.957Z,35.53
2023-05-09T00:59:56.956Z,35.53
2023-05-09T01:00:56.970Z,35.52
2023-05-09T01:01:56.970Z,35.55
2023-05-09T01:02:57.158Z,35.51
2023-05-09T01:03:56.979Z,35.49
2023-05-09T01:04:57.000Z,35.53
2023-05-09T01:05:57.064Z,35.51
2023-05-09T01:06:57.013Z,35.48
2023-05-09T01:07:56.969Z,35.53
2023-05-09T01:08:57.031Z,35.57
2023-05-09T01:09:57.044Z,35.52
2023-05-09T01:10:57.065Z,35.44
2023-05-09T01:11:57.133Z,35.50
2023-05-09T01:12:57.138Z,35.50
2023-05-09T01:13:57.150Z,35.51
2023-05-09T01:14:57.173Z,35.56
2023-05-09T01:15:57.185Z,35.51
2023-05-09T01:16:57.663Z,35.55
2023-05-09T01:17:57.277Z,35.49
2023-05-09T01:18:57.286Z,35.50
2023-05-09T01:19:57.281Z,35.51
2023-05-09T01:20:57.306Z,35.50
2023-05-09T01:21:57.460Z,35.50
2023-05-09T01:22:57.314Z,35.50
2023-05-09T01:23:57.340Z,35.53
2023-05-09T01:24:57.341Z,35.49
2023-05-09T01:25:57.318Z,35.49
2023-05-09T01:26:57.343Z,35.53
2023-05-09T01:27:57.337Z,35.48
2023-05-09T01:28:57.327Z,35.48
2023-05-09T01:29:57.351Z,35.51
2023-05-09T01:30:57.349Z,35.51
2023-05-09T01:31:57.325Z,35.50
2023-05-09T01:32:57.344Z,35.48
2023-05-09T01:33:57.342Z,35.48
2023-05-09T01:34:57.312Z,35.49
2023-05-09T01:35:57.382Z,35.50
2023-05-09T01:36:57.342Z,35.50
2023-05-09T01:37:57.430Z,35.49
2023-05-09T01:38:57.358Z,35.49
2023-05-09T01:39:57.366Z,35.50
2023-05-09T01:40:57.360Z,35.48
2023-05-09T01:41:57.639Z,35.51
2023-05-09T01:42:57.368Z,35.54
2023-05-09T01:43:57.497Z,35.50
2023-05-09T01:44:57.397Z,35.53
2023-05-09T01:45:57.429Z,35.51
2023-05-09T01:46:57.474Z,35.51
2023-05-09T01:47:57.499Z,35.50
2023-05-09T01:48:57.435Z,35.53
2023-05-09T01:49:57.443Z,35.49
2023-05-09T01:50:57.412Z,35.48
2023-05-09T01:51:57.434Z,35.50
2023-05-09T01:52:57.456Z,35.51
2023-05-09T01:53:57.601Z,35.55
2023-05-09T01:54:57.428Z,35.51
2023-05-09T01:55:57.447Z,35.51
2023-05-09T01:56:57.535Z,35.50
2023-05-09T01:57:57.477Z,35.48
2023-05-09T01:58:57.478Z,35.48
2023-05-09T01:59:57.485Z,35.51
2023-05-09T02:00:57.512Z,35.54
2023-05-09T02:01:57.672Z,35.53
2023-05-09T02:02:57.534Z,35.49
2023-05-09T02:03:57.445Z,35.50
2023-05-09T02:04:57.470Z,35.54
2023-05-09T02:05:57.491Z,35.53
2023-05-09T02:06:57.467Z,35.55
2023-05-09T02:07:57.451Z,35.51
2023-05-09T02:08:57.513Z,35.53
2023-05-09T02:09:57.560Z,35.50
2023-05-09T02:10:57.527Z,35.53
2023-05-09T02:11:57.548Z,35.51
2023-05-09T02:12:57.635Z,35.47
2023-05-09T02:13:57.540Z,35.48
2023-05-09T02:14:57.556Z,35.49
2023-05-09T02:15:57.553Z,35.53
2023-05-09T02:16:57.604Z,35.50
2023-05-09T02:17:57.569Z,35.50
2023-05-09T02:18:57.523Z,35.48
2023-05-09T02:19:57.560Z,35.50
2023-05-09T02:20:57.514Z,35.47
2023-05-09T02:21:57.668Z,35.53
2023-05-09T02:22:57.520Z,35.50
2023-05-09T02:23:57.467Z,35.50
2023-05-09T02:24:57.471Z,35.50
2023-05-09T02:25:57.577Z,35.47
2023-05-09T02:26:57.694Z,35.50
2023-05-09T02:27:57.465Z,35.50
2023-05-09T02:28:57.449Z,35.49
2023-05-09T02:29:57.446Z,35.49
2023-05-09T02:30:57.472Z,35.50
2023-05-09T02:31:57.516Z,35.51
2023-05-09T02:32:57.477Z,35.47
2023-05-09T02:33:57.476Z,35.47
2023-05-09T02:34:57.462Z,35.50
2023-05-09T02:35:57.455Z,35.45
2023-05-09T02:36:57.448Z,35.49
2023-05-09T02:37:57.479Z,35.44
2023-05-09T02:38:57.430Z,35.49
2023-05-09T02:39:57.435Z,35.47
2023-05-09T02:40:57.428Z,35.45
2023-05-09T02:41:57.537Z,35.45
2023-05-09T02:42:57.444Z,35.47
2023-05-09T02:43:57.430Z,35.47
2023-05-09T02:44:57.414Z,35.50
2023-05-09T02:45:57.482Z,35.47
2023-05-09T02:46:57.436Z,35.47
2023-05-09T02:47:57.450Z,35.49
2023-05-09T02:48:57.431Z,35.47
2023-05-09T02:49:57.423Z,35.49
2023-05-09T02:50:57.387Z,35.45
2023-05-09T02:51:57.408Z,35.48
2023-05-09T02:52:57.404Z,35.51
2023-05-09T02:53:57.369Z,35.46
2023-05-09T02:54:57.426Z,35.41
2023-05-09T02:55:57.392Z,35.48
2023-05-09T02:56:57.670Z,35.46
2023-05-09T02:58:11.889Z,35.46
2023-05-09T02:58:58.387Z,35.46
2023-05-09T02:59:57.406Z,35.46
2023-05-09T03:00:57.393Z,35.45
2023-05-09T03:01:57.470Z,35.47
2023-05-09T03:02:57.485Z,35.46
2023-05-09T03:03:57.400Z,35.44
2023-05-09T03:04:57.346Z,35.45
2023-05-09T03:05:57.383Z,35.44
2023-05-09T03:06:57.361Z,35.44
2023-05-09T03:07:57.330Z,35.44
2023-05-09T03:08:57.350Z,35.44
2023-05-09T03:09:57.331Z,35.42
2023-05-09T03:10:57.334Z,35.44
2023-05-09T03:11:57.343Z,35.46
2023-05-09T03:12:57.341Z,35.44
2023-05-09T03:13:57.401Z,35.42
2023-05-09T03:14:57.306Z,35.42
2023-05-09T03:15:57.314Z,35.42
2023-05-09T03:16:57.317Z,35.46
2023-05-09T03:17:57.381Z,35.46
2023-05-09T03:18:57.284Z,35.42
2023-05-09T03:19:57.298Z,35.42
2023-05-09T03:20:57.307Z,35.43
2023-05-09T03:21:57.245Z,35.44
2023-05-09T03:22:57.729Z,35.41
2023-05-09T03:23:57.244Z,35.41
2023-05-09T03:24:57.231Z,35.41
2023-05-09T03:25:57.250Z,35.44
2023-05-09T03:26:57.241Z,35.40
2023-05-09T03:27:57.203Z,35.42
2023-05-09T03:28:57.202Z,35.38
2023-05-09T03:29:57.293Z,35.44
2023-05-09T03:30:57.183Z,35.41
2023-05-09T03:31:57.203Z,35.38
2023-05-09T03:32:57.189Z,35.42
2023-05-09T03:33:57.199Z,35.42
2023-05-09T03:34:57.150Z,35.42
2023-05-09T03:35:57.142Z,35.44
2023-05-09T03:36:57.244Z,35.43
2023-05-09T03:37:57.170Z,35.42
2023-05-09T03:38:57.149Z,35.38
2023-05-09T03:39:57.138Z,35.40
2023-05-09T03:40:57.150Z,35.42
2023-05-09T03:41:57.142Z,35.43
2023-05-09T03:42:57.165Z,35.42
2023-05-09T03:43:57.083Z,35.41
2023-05-09T03:44:57.123Z,35.37
2023-05-09T03:45:57.215Z,35.35
2023-05-09T03:46:57.110Z,35.40
2023-05-09T03:47:57.108Z,35.40
2023-05-09T03:48:57.109Z,35.38
2023-05-09T03:49:57.069Z,35.38
2023-05-09T03:50:57.075Z,35.43
2023-05-09T03:51:57.117Z,35.38
2023-05-09T03:52:57.112Z,35.42
2023-05-09T03:53:57.055Z,35.39
2023-05-09T03:54:57.045Z,35.38
2023-05-09T03:55:57.042Z,35.40
2023-05-09T03:56:57.044Z,35.42
2023-05-09T03:57:57.050Z,35.37
2023-05-09T03:58:57.008Z,35.39
2023-05-09T03:59:57.013Z,35.39
2023-05-09T04:00:56.999Z,35.37
2023-05-09T04:01:57.106Z,35.42
2023-05-09T04:02:57.038Z,35.39
2023-05-09T04:03:57.014Z,35.40
2023-05-09T04:04:56.999Z,35.39
2023-05-09T04:05:56.978Z,35.38
2023-05-09T04:06:56.976Z,35.39
2023-05-09T04:07:56.957Z,35.34
2023-05-09T04:08:56.962Z,35.37
2023-05-09T04:09:56.930Z,35.38
2023-05-09T04:10:56.937Z,35.39
2023-05-09T04:11:56.903Z,35.38
2023-05-09T04:12:56.978Z,35.38
2023-05-09T04:13:56.968Z,35.37
2023-05-09T04:14:56.887Z,35.38
2023-05-09T04:15:56.894Z,35.37
2023-05-09T04:16:56.990Z,35.39
2023-05-09T04:17:57.104Z,35.38
2023-05-09T04:18:56.894Z,35.35
2023-05-09T04:19:56.931Z,35.38
2023-05-09T04:20:56.878Z,35.38
2023-05-09T04:21:56.878Z,35.37
2023-05-09T04:22:56.864Z,35.42
2023-05-09T04:23:56.859Z,35.33
2023-05-09T04:24:56.870Z,35.38
2023-05-09T04:25:56.862Z,35.38
2023-05-09T04:26:56.879Z,35.38
2023-05-09T04:27:56.877Z,35.34
2023-05-09T04:28:56.850Z,35.36
2023-05-09T04:29:56.882Z,35.42
2023-05-09T04:30:56.889Z,35.35
2023-05-09T04:31:56.945Z,35.35
2023-05-09T04:32:56.907Z,35.34
2023-05-09T04:33:56.958Z,35.36
2023-05-09T04:34:56.876Z,35.35
2023-05-09T04:35:56.860Z,35.38
2023-05-09T04:36:56.863Z,35.35
2023-05-09T04:37:56.816Z,35.35
2023-05-09T04:38:56.823Z,35.36
2023-05-09T04:39:56.829Z,35.35
2023-05-09T04:40:56.821Z,35.37
2023-05-09T04:41:56.816Z,35.34
2023-05-09T04:42:56.848Z,35.35
2023-05-09T04:43:56.819Z,35.36
2023-05-09T04:44:56.822Z,35.38
2023-05-09T04:45:56.848Z,35.33
2023-05-09T04:46:56.823Z,35.40
2023-05-09T04:47:57.265Z,35.38
2023-05-09T04:48:56.809Z,35.33
2023-05-09T04:49:56.901Z,35.36
2023-05-09T04:50:56.825Z,35.34
2023-05-09T04:51:56.822Z,35.34
2023-05-09T04:52:56.850Z,35.35
2023-05-09T04:53:56.819Z,35.34
2023-05-09T04:54:56.856Z,35.36
2023-05-09T04:55:56.845Z,35.29
2023-05-09T04:57:09.944Z,35.31
2023-05-09T04:57:57.893Z,35.36
2023-05-09T04:58:56.831Z,35.35
2023-05-09T04:59:56.819Z,35.39
2023-05-09T05:00:56.819Z,35.39
2023-05-09T05:01:56.865Z,35.35
2023-05-09T05:02:57.289Z,35.36
2023-05-09T05:03:56.813Z,35.34
2023-05-09T05:05:10.258Z,35.38
2023-05-09T05:05:57.884Z,35.38
2023-05-09T05:06:56.773Z,35.35
2023-05-09T05:07:56.823Z,35.31
2023-05-09T05:08:56.756Z,35.39
2023-05-09T05:09:56.753Z,35.38
2023-05-09T05:10:56.776Z,35.34
2023-05-09T05:12:01.270Z,35.36
2023-05-09T05:12:57.785Z,35.39
2023-05-09T05:13:56.771Z,35.35
2023-05-09T05:14:56.726Z,35.38
2023-05-09T05:15:56.738Z,35.36
2023-05-09T05:16:56.689Z,35.36
2023-05-09T05:17:56.730Z,35.39
2023-05-09T05:18:56.697Z,35.36
2023-05-09T05:19:56.700Z,35.33
2023-05-09T05:20:56.712Z,35.43
2023-05-09T05:21:56.850Z,35.41
2023-05-09T05:22:56.671Z,35.35
2023-05-09T05:23:56.662Z,35.40
2023-05-09T05:24:56.663Z,35.39
2023-05-09T05:25:56.669Z,35.40
2023-05-09T05:26:56.633Z,35.39
2023-05-09T05:27:56.750Z,35.36
2023-05-09T05:28:56.634Z,35.36
2023-05-09T05:29:56.610Z,35.39
2023-05-09T05:30:56.602Z,35.39
2023-05-09T05:31:56.723Z,35.38
2023-05-09T05:32:56.633Z,35.38
2023-05-09T05:33:56.599Z,35.39
2023-05-09T05:34:56.580Z,35.67
2023-05-09T05:35:56.569Z,35.57
2023-05-09T05:36:56.568Z,35.52
2023-05-09T05:37:56.673Z,35.45
2023-05-09T05:38:56.584Z,35.49
2023-05-09T05:39:56.550Z,35.48
2023-05-09T05:40:56.558Z,35.49
2023-05-09T05:41:56.521Z,35.48
2023-05-09T05:42:56.718Z,35.54
2023-05-09T05:43:56.526Z,35.53
2023-05-09T05:44:56.507Z,35.50
2023-05-09T05:45:56.547Z,35.50
2023-05-09T05:46:56.506Z,35.48
2023-05-09T05:47:56.556Z,35.46
2023-05-09T05:48:56.462Z,35.46
2023-05-09T05:49:56.494Z,35.49
2023-05-09T05:50:56.492Z,35.53
2023-05-09T05:51:56.494Z,35.52
2023-05-09T05:52:56.746Z,35.58
2023-05-09T05:53:56.547Z,35.57
2023-05-09T05:54:56.491Z,35.50
2023-05-09T05:55:56.449Z,35.54
2023-05-09T05:56:56.447Z,35.54
2023-05-09T05:57:56.771Z,35.52
2023-05-09T05:58:56.409Z,35.52
2023-05-09T05:59:56.413Z,35.51
2023-05-09T06:00:56.459Z,35.57
2023-05-09T06:01:56.451Z,35.60
2023-05-09T06:02:56.847Z,35.61
2023-05-09T06:03:56.510Z,35.64
2023-05-09T06:04:56.380Z,35.66
2023-05-09T06:05:56.413Z,35.62
2023-05-09T06:06:56.402Z,35.69
2023-05-09T06:07:56.391Z,35.89
2023-05-09T06:08:56.421Z,36.85
2023-05-09T06:09:56.491Z,36.61
2023-05-09T06:10:56.391Z,36.87
2023-05-09T06:11:56.405Z,36.49
2023-05-09T06:12:56.449Z,36.75
2023-05-09T06:13:56.423Z,36.60
2023-05-09T06:14:56.407Z,36.38
2023-05-09T06:16:01.934Z,36.85
2023-05-09T06:16:57.521Z,36.76
2023-05-09T06:17:56.796Z,37.30
2023-05-09T06:18:56.465Z,37.49
2023-05-09T06:19:56.410Z,37.09
2023-05-09T06:20:56.395Z,37.07
2023-05-09T06:21:56.415Z,36.91
2023-05-09T06:22:56.408Z,37.18
2023-05-09T06:24:56.371Z,38.23
2023-05-09T06:25:56.466Z,38.95
2023-05-09T06:26:56.352Z,39.33
2023-05-09T06:27:56.361Z,38.89
2023-05-09T06:28:56.343Z,38.89
2023-05-09T06:29:56.340Z,39.73
2023-05-09T06:30:56.362Z,39.23
2023-05-09T06:31:56.346Z,38.66
2023-05-09T06:32:56.366Z,38.86
2023-05-09T06:33:56.345Z,38.83
2023-05-09T06:34:56.308Z,38.11
2023-05-09T06:35:56.325Z,38.48
2023-05-09T06:36:56.283Z,38.34
2023-05-09T06:37:56.339Z,38.35
2023-05-09T06:38:56.294Z,38.43
2023-05-09T06:39:56.275Z,38.28
2023-05-09T06:40:56.271Z,38.33
2023-05-09T06:41:56.354Z,38.51
2023-05-09T06:42:56.752Z,39.10
2023-05-09T06:43:56.274Z,39.32
2023-05-09T06:44:56.286Z,39.20
2023-05-09T06:45:56.270Z,39.49
2023-05-09T06:46:56.210Z,38.88
2023-05-09T06:47:56.299Z,39.33
2023-05-09T06:48:56.207Z,39.19
2023-05-09T06:49:56.223Z,39.46
2023-05-09T06:50:56.222Z,39.37
2023-05-09T06:51:56.199Z,39.79
2023-05-09T06:52:56.236Z,40.65
2023-05-09T06:53:56.242Z,40.43
2023-05-09T06:54:56.176Z,39.87
2023-05-09T06:55:56.158Z,40.22
2023-05-09T06:56:56.163Z,40.11
2023-05-09T06:57:56.257Z,40.01
2023-05-09T06:58:56.171Z,40.00
2023-05-09T06:59:56.168Z,40.30
2023-05-09T07:00:56.134Z,40.07
2023-05-09T07:01:56.145Z,40.12
2023-05-09T07:02:56.152Z,40.04
2023-05-09T07:03:56.117Z,39.91
2023-05-09T07:04:56.181Z,40.01
2023-05-09T07:05:56.096Z,39.92
2023-05-09T07:06:56.129Z,39.81
2023-05-09T07:07:56.098Z,39.51
2023-05-09T07:08:56.098Z,40.28
2023-05-09T07:10:07.290Z,40.24
2023-05-09T07:10:57.042Z,40.16
2023-05-09T07:11:56.066Z,40.11
2023-05-09T07:12:56.129Z,39.80
2023-05-09T07:13:56.143Z,39.75
2023-05-09T07:14:56.025Z,40.21
2023-05-09T07:15:56.096Z,40.25
2023-05-09T07:17:05.155Z,39.81
2023-05-09T07:17:57.092Z,40.03
2023-05-09T07:18:56.007Z,40.23
2023-05-09T07:19:55.979Z,39.68
2023-05-09T07:20:56.010Z,40.01
2023-05-09T07:21:55.996Z,39.75
2023-05-09T07:22:56.048Z,40.00
2023-05-09T07:23:56.258Z,40.18
2023-05-09T07:24:55.966Z,39.58
2023-05-09T07:25:55.970Z,39.67
2023-05-09T07:26:55.940Z,39.94
2023-05-09T07:27:55.959Z,39.64
2023-05-09T07:28:55.988Z,40.22
2023-05-09T07:29:56.050Z,39.70
2023-05-09T07:30:55.927Z,39.62
2023-05-09T07:31:55.940Z,39.67
2023-05-09T07:32:55.973Z,39.93
2023-05-09T07:33:56.297Z,40.03
2023-05-09T07:34:55.922Z,39.71
2023-05-09T07:35:55.963Z,39.85
2023-05-09T07:36:55.996Z,39.61
2023-05-09T07:37:56.974Z,40.01
2023-05-09T07:38:56.309Z,39.64
2023-05-09T07:39:55.974Z,39.79
2023-05-09T07:40:55.989Z,40.12
2023-05-09T07:41:55.940Z,39.77
2023-05-09T07:42:55.959Z,39.94
2023-05-09T07:43:56.289Z,39.57
2023-05-09T07:44:55.912Z,39.64
2023-05-09T07:45:56.055Z,39.61
2023-05-09T07:46:55.901Z,39.66
2023-05-09T07:47:55.959Z,39.50
2023-05-09T07:48:56.275Z,39.60
2023-05-09T07:49:55.906Z,39.95
2023-05-09T07:50:55.900Z,40.32
2023-05-09T07:51:55.928Z,39.49
2023-05-09T07:52:55.832Z,40.34
2023-05-09T07:53:55.841Z,39.65
2023-05-09T07:54:55.876Z,39.60
2023-05-09T07:55:55.870Z,39.58
2023-05-09T07:56:55.845Z,39.56
2023-05-09T07:57:55.791Z,39.94
2023-05-09T07:58:56.006Z,39.85
2023-05-09T07:59:55.806Z,39.78
2023-05-09T08:00:55.808Z,39.68
2023-05-09T08:01:55.967Z,39.62
2023-05-09T08:02:55.848Z,39.84
2023-05-09T08:03:56.337Z,39.98
2023-05-09T08:04:55.785Z,40.68
2023-05-09T08:05:55.783Z,39.83
2023-05-09T08:06:55.762Z,39.85
2023-05-09T08:07:55.775Z,40.09
2023-05-09T08:08:55.757Z,39.88
2023-05-09T08:09:55.751Z,39.86
2023-05-09T08:10:55.723Z,39.65
2023-05-09T08:11:55.738Z,39.83
2023-05-09T08:12:55.759Z,39.63
2023-05-09T08:13:55.726Z,39.72
2023-05-09T08:14:55.711Z,39.71
2023-05-09T08:15:55.728Z,39.70
2023-05-09T08:16:55.714Z,39.65
2023-05-09T08:17:55.862Z,39.83
2023-05-09T08:18:55.826Z,39.69
2023-05-09T08:19:55.667Z,39.60
2023-05-09T08:20:55.673Z,39.65
2023-05-09T08:21:55.679Z,39.66
2023-05-09T08:22:55.683Z,39.64
2023-05-09T08:23:55.668Z,39.70
2023-05-09T08:24:55.707Z,39.67
2023-05-09T08:25:55.773Z,40.01
2023-05-09T08:26:55.825Z,39.73
2023-05-09T08:27:55.886Z,39.73
2023-05-09T08:28:56.283Z,39.81
2023-05-09T08:29:56.007Z,39.70
2023-05-09T08:30:56.151Z,39.71
2023-05-09T08:31:56.246Z,39.77
2023-05-09T08:32:56.212Z,40.11
2023-05-09T08:33:56.331Z,39.76
2023-05-09T08:34:56.296Z,39.94
2023-05-09T08:35:56.408Z,40.19
2023-05-09T08:36:56.414Z,39.87
2023-05-09T08:37:56.473Z,39.86
2023-05-09T08:38:56.806Z,39.84
2023-05-09T08:39:56.557Z,40.05
2023-05-09T08:40:56.631Z,39.92
2023-05-09T08:41:56.702Z,39.94
2023-05-09T08:42:56.745Z,40.03
2023-05-09T08:43:56.792Z,39.98
2023-05-09T08:44:56.832Z,39.96
2023-05-09T08:45:56.893Z,39.99
2023-05-09T08:46:56.967Z,40.06
2023-05-09T08:47:57.069Z,40.07
2023-05-09T08:48:57.312Z,40.22
2023-05-09T08:49:57.163Z,40.84
2023-05-09T08:50:57.087Z,40.25
2023-05-09T08:51:57.148Z,40.73
2023-05-09T08:52:57.198Z,40.70
2023-05-09T08:53:57.223Z,40.57
2023-05-09T08:54:57.270Z,40.46
2023-05-09T08:55:57.306Z,40.37
2023-05-09T08:56:57.367Z,40.55
2023-05-09T08:57:57.494Z,40.28
2023-05-09T08:58:57.554Z,40.31
2023-05-09T08:59:57.599Z,40.30
2023-05-09T09:00:57.659Z,40.14
2023-05-09T09:01:57.730Z,40.43
2023-05-09T09:02:57.798Z,40.31
2023-05-09T09:03:58.299Z,40.13
2023-05-09T09:04:57.928Z,40.15
2023-05-09T09:05:58.111Z,40.06
2023-05-09T09:06:57.990Z,40.18
2023-05-09T09:07:58.057Z,40.30
2023-05-09T09:08:58.342Z,40.35
2023-05-09T09:09:58.139Z,40.16
2023-05-09T09:10:58.218Z,40.16
2023-05-09T09:11:58.221Z,40.11
2023-05-09T09:12:58.323Z,40.15
2023-05-09T09:13:58.368Z,40.08
2023-05-09T09:14:58.397Z,40.22
2023-05-09T09:15:58.539Z,40.11
2023-05-09T09:16:58.596Z,40.27
2023-05-09T09:17:58.547Z,40.39
2023-05-09T09:18:59.175Z,40.31
2023-05-09T09:19:59.547Z,40.36
2023-05-09T09:20:58.555Z,40.25
2023-05-09T09:21:58.622Z,40.22
2023-05-09T09:22:58.499Z,40.67
2023-05-09T09:23:58.812Z,40.26
2023-05-09T09:24:58.510Z,40.32
2023-05-09T09:25:59.757Z,40.25
2023-05-09T09:26:58.565Z,40.31
2023-05-09T09:27:58.566Z,40.32
2023-05-09T09:28:58.589Z,40.49
2023-05-09T09:29:58.627Z,40.59
2023-05-09T09:30:58.659Z,40.44
2023-05-09T09:31:58.734Z,40.39
2023-05-09T09:32:58.728Z,40.41
2023-05-09T09:33:58.746Z,40.75
2023-05-09T09:34:58.758Z,41.31
2023-05-09T09:35:58.805Z,40.46
2023-05-09T09:36:58.845Z,40.00
2023-05-09T09:38:00.105Z,39.43
2023-05-09T09:38:59.328Z,39.81
2023-05-09T09:39:59.012Z,39.49
2023-05-09T09:40:59.011Z,39.91
2023-05-09T09:41:59.014Z,40.05
2023-05-09T09:42:58.995Z,40.18
2023-05-09T09:43:59.347Z,40.39
2023-05-09T09:44:59.015Z,40.34
2023-05-09T09:45:59.117Z,40.41
2023-05-09T09:46:58.994Z,40.26
2023-05-09T09:47:59.036Z,40.13
2023-05-09T09:48:59.336Z,39.94
2023-05-09T09:49:59.012Z,39.96
2023-05-09T09:50:59.010Z,40.03
2023-05-09T09:51:58.974Z,40.02
2023-05-09T09:52:58.980Z,40.02
2023-05-09T09:53:59.326Z,40.00
2023-05-09T09:54:59.015Z,40.04
2023-05-09T09:55:59.053Z,40.03
2023-05-09T09:56:59.112Z,39.96
2023-05-09T09:57:59.126Z,39.95
2023-05-09T09:58:59.200Z,39.89
2023-05-09T09:59:59.256Z,40.00
2023-05-09T10:00:59.353Z,40.11
2023-05-09T10:01:59.381Z,40.00
2023-05-09T10:02:59.494Z,39.91
2023-05-09T10:03:59.503Z,39.94
2023-05-09T10:04:59.543Z,39.89
2023-05-09T10:05:59.592Z,39.95
2023-05-09T10:06:59.690Z,39.92
2023-05-09T10:07:59.725Z,40.28
2023-05-09T10:08:59.837Z,39.98
2023-05-09T10:09:59.877Z,40.01
2023-05-09T10:10:59.816Z,39.94
2023-05-09T10:12:00.816Z,39.97
2023-05-09T10:12:59.945Z,40.12
2023-05-09T10:14:00.332Z,40.05
2023-05-09T10:14:59.985Z,40.09
2023-05-09T10:16:00.164Z,40.11
2023-05-09T10:17:00.246Z,40.09
2023-05-09T10:18:00.252Z,40.08
2023-05-09T10:19:00.234Z,40.16
2023-05-09T10:20:00.333Z,40.16
2023-05-09T10:21:00.173Z,40.28
2023-05-09T10:22:00.204Z,40.20
2023-05-09T10:23:00.219Z,40.15
2023-05-09T10:24:00.280Z,40.28
2023-05-09T10:25:00.347Z,40.19
2023-05-09T10:26:00.380Z,40.25
2023-05-09T10:27:00.327Z,40.20
2023-05-09T10:28:01.346Z,40.30
2023-05-09T10:29:00.379Z,40.30
2023-05-09T10:30:00.401Z,40.24
2023-05-09T10:31:00.461Z,40.32
2023-05-09T10:32:00.394Z,40.34
2023-05-09T10:33:00.461Z,40.41
2023-05-09T10:34:00.466Z,40.57
2023-05-09T10:35:00.836Z,40.45
2023-05-09T10:36:00.475Z,40.47
2023-05-09T10:37:00.507Z,40.53
2023-05-09T10:38:00.528Z,40.53
2023-05-09T10:39:00.541Z,40.43
2023-05-09T10:40:00.580Z,40.29
2023-05-09T10:41:00.629Z,40.41
2023-05-09T10:42:00.758Z,40.32
2023-05-09T10:43:00.686Z,40.32
2023-05-09T10:44:00.707Z,40.25
2023-05-09T10:45:00.727Z,40.26
2023-05-09T10:46:00.763Z,40.24
2023-05-09T10:47:00.845Z,40.22
2023-05-09T10:48:00.825Z,40.25
2023-05-09T10:49:00.843Z,40.21
2023-05-09T10:50:00.864Z,40.23
2023-05-09T10:51:00.857Z,40.41
2023-05-09T10:52:00.873Z,40.23
2023-05-09T10:53:00.908Z,40.32
2023-05-09T10:54:00.965Z,40.49
2023-05-09T10:55:01.339Z,40.39
2023-05-09T10:56:00.967Z,40.32
2023-05-09T10:57:00.973Z,40.35
2023-05-09T10:58:01.104Z,40.38
2023-05-09T10:59:01.014Z,40.38
2023-05-09T11:00:01.335Z,40.35
2023-05-09T11:01:01.021Z,40.38
2023-05-09T11:02:01.170Z,40.45
2023-05-09T11:03:01.094Z,40.50
2023-05-09T11:04:01.134Z,40.41
2023-05-09T11:05:01.367Z,40.60
2023-05-09T11:06:01.062Z,40.57
2023-05-09T11:07:01.100Z,40.61
2023-05-09T11:08:01.065Z,40.60
2023-05-09T11:09:01.090Z,40.87
2023-05-09T11:10:01.367Z,40.55
2023-05-09T11:11:01.153Z,40.64
2023-05-09T11:12:01.121Z,40.42
2023-05-09T11:13:01.134Z,37.53
2023-05-09T11:14:01.245Z,39.46
2023-05-09T11:15:01.356Z,39.73
2023-05-09T11:16:01.258Z,39.86
2023-05-09T11:17:01.240Z,39.74
2023-05-09T11:18:01.361Z,39.83
2023-05-09T11:19:01.335Z,39.90
2023-05-09T11:20:01.907Z,39.96
2023-05-09T11:21:01.426Z,39.94
2023-05-09T11:22:01.503Z,39.91
2023-05-09T11:23:01.508Z,39.88
2023-05-09T11:24:01.490Z,40.07
2023-05-09T11:25:01.852Z,40.04
2023-05-09T11:26:01.579Z,40.05
2023-05-09T11:27:01.600Z,40.02
2023-05-09T11:28:01.605Z,39.97
2023-05-09T11:29:01.600Z,39.89
2023-05-09T11:30:01.761Z,39.92
2023-05-09T11:31:01.675Z,39.92
2023-05-09T11:32:01.703Z,39.87
2023-05-09T11:33:01.736Z,39.91
2023-05-09T11:34:01.723Z,39.86
2023-05-09T11:35:01.900Z,39.78
2023-05-09T11:36:01.724Z,39.74
2023-05-09T11:37:01.734Z,39.71
2023-05-09T11:38:01.786Z,39.67
2023-05-09T11:39:01.835Z,39.69
2023-05-09T11:40:01.849Z,38.21
2023-05-09T11:41:01.875Z,38.78
2023-05-09T11:42:02.102Z,39.18
2023-05-09T11:43:01.923Z,39.20
2023-05-09T11:44:01.914Z,39.36
2023-05-09T11:45:02.360Z,39.25
2023-05-09T11:46:02.153Z,39.31
2023-05-09T11:47:02.015Z,38.52
2023-05-09T11:48:02.133Z,38.46
2023-05-09T11:49:02.145Z,38.73
2023-05-09T11:50:02.139Z,38.59
2023-05-09T11:51:02.180Z,39.02
2023-05-09T11:52:02.218Z,39.12
2023-05-09T11:53:02.267Z,39.09
2023-05-09T11:54:02.308Z,39.12
2023-05-09T11:55:02.352Z,39.14
2023-05-09T11:56:02.381Z,37.50
2023-05-09T11:57:02.412Z,38.31
2023-05-09T11:58:02.481Z,38.45
2023-05-09T11:59:02.513Z,38.52
2023-05-09T12:00:02.841Z,38.58
2023-05-09T12:01:02.622Z,38.13
2023-05-09T12:02:02.868Z,37.58
2023-05-09T12:03:02.812Z,36.76
2023-05-09T12:04:02.892Z,37.83
2023-05-09T12:05:02.853Z,37.80
2023-05-09T12:06:02.879Z,37.91
2023-05-09T12:07:02.936Z,36.85
2023-05-09T12:08:02.989Z,36.11
2023-05-09T12:09:03.073Z,35.18
2023-05-09T12:10:03.410Z,36.19
2023-05-09T12:11:03.214Z,36.65
2023-05-09T12:12:03.241Z,36.94
2023-05-09T12:13:03.369Z,36.74
2023-05-09T12:14:03.361Z,36.79
2023-05-09T12:15:03.849Z,36.78
2023-05-09T12:16:03.518Z,36.98
2023-05-09T12:17:03.590Z,36.68
2023-05-09T12:18:03.810Z,36.37
2023-05-09T12:19:03.682Z,36.87
2023-05-09T12:20:04.457Z,36.90
2023-05-09T12:21:03.832Z,36.94
2023-05-09T12:22:03.864Z,36.86
2023-05-09T12:23:03.941Z,36.84
2023-05-09T12:24:04.011Z,36.90
2023-05-09T12:25:04.382Z,36.81
2023-05-09T12:26:04.139Z,36.81
2023-05-09T12:27:04.196Z,36.85
2023-05-09T12:28:04.318Z,36.75
2023-05-09T12:29:04.297Z,36.83
2023-05-09T12:30:04.365Z,36.84
2023-05-09T12:31:04.485Z,36.79
2023-05-09T12:32:04.496Z,36.83
2023-05-09T12:33:04.608Z,36.74
2023-05-09T12:34:04.679Z,36.72
2023-05-09T12:35:04.669Z,36.77
2023-05-09T12:36:04.711Z,36.76
2023-05-09T12:37:04.766Z,36.66
2023-05-09T12:38:04.982Z,36.65
2023-05-09T12:39:04.873Z,36.78
2023-05-09T12:40:05.566Z,36.73
2023-05-09T12:41:05.064Z,36.69
2023-05-09T12:42:05.064Z,36.74
2023-05-09T12:43:05.131Z,36.66
2023-05-09T12:44:05.174Z,36.70
2023-05-09T12:45:05.277Z,36.60
2023-05-09T12:46:05.306Z,36.60
2023-05-09T12:47:05.347Z,36.60
2023-05-09T12:48:05.439Z,36.52
2023-05-09T12:49:05.469Z,36.48
2023-05-09T12:50:05.543Z,36.59
2023-05-09T12:51:05.570Z,36.51
2023-05-09T12:52:06.673Z,36.52
2023-05-09T12:53:05.654Z,36.52
2023-05-09T12:54:05.671Z,36.46